Millenium Air

Millenium Air Since 1998



 METAR AND TAF INFORMATION
METAR FOR EGGD
ADDS - METARS form results

(0437 UTC 18 April 2021)
Data provider http://aviationweather.gov/metar/data/
 
METAR text: EGGD 180420Z AUTO 28005KT 9999 NCD 02/M00 Q1025
Conditions at: EGGD (BRISTOL/LULSGATE, GB) observed 0420 UTC 18 April 2021
Temperature: 2.0°C (36°F)
Dewpoint: 0.0°C (32°F) [RH = 87%]
Pressure (altimeter): 30.27 inches Hg (1025.0 mb)
Winds: from the W (280 degrees) at 6 MPH (5 knots; 2.6 m/s)
Visibility: 6 or more miles (10+ km)
Ceiling: at least 12,000 feet AGL
Clouds: sky clear below 12,000 feet AGL
Weather: no significant weather observed at this time

METAR text: EGGD 180350Z AUTO 27006KT 9999 NCD 02/00 Q1025
Conditions at: EGGD (BRISTOL/LULSGATE, GB) observed 0350 UTC 18 April 2021
Temperature: 2.0°C (36°F)
Dewpoint: 0.0°C (32°F) [RH = 87%]
Pressure (altimeter): 30.27 inches Hg (1025.0 mb)
Winds: from the W (270 degrees) at 7 MPH (6 knots; 3.1 m/s)
Visibility: 6 or more miles (10+ km)
Ceiling: at least 12,000 feet AGL
Clouds: sky clear below 12,000 feet AGL
Weather: no significant weather observed at this time

Forecast for: EGGD (BRISTOL/LULSGATE, GB)
Text: TAF EGGD 172301Z 1800/1824 VRB04KT CAVOK
Forecast period: 0000 UTC 18 April 2021 to 0000 UTC 19 April 2021
Forecast type: FROM: standard forecast or significant change
Winds: variable direction winds at 5 MPH (4 knots; 2.1 m/s)
Visibility: 6 or more miles (10+ km)
Ceiling: unknown
Clouds: missing
Weather: NSW  (no significant weather)

 AIRPORT MAP

 RUNWAY INFORMATION
Runway 09 Runway length 6598 ft Runway width 151 ft
Runway elevation 613 ft Runway displaced threshold 0 ft Runway heading 86
Runway 27 Runway length 6598 ft Runway width 151 ft
Runway elevation 601 ft Runway displaced threshold 443 ft Runway heading 266

 AIRPORT FREQUENCIES
Type ATIS Name ATIS Frequency 126.025 MHZ
Type GND Name GND Frequency 121.925 MHZ
Type RDR Name RDR Frequency 136.075 MHZ
Type TWR Name TWR Frequency 133.85 MHZ

 AIRPORT NEAR NAVIGATION AIDS
Type NDB Name Bristol Frequency 414 KHZ